Time;durP1;ratioP1;P1;durP2;ratioP2;P2;SDS_P1;SDS_P2;PMS_P1;PMS_P2;Temp;Humidity;BMP_temperature;BMP_pressure;BME280_temperature;BME280_humidity;BME280_pressure;Samples;Min_cycle;Max_cycle;Signal;HPM_P1;HPM_P2
2021/01/28 00:01:30;;;;;;;22.03;20.20;;;2.60;86.50;;;;;;4991968;28;20386;-69
2021/01/28 00:03:55;;;;;;;21.27;19.58;;;2.60;87.10;;;;;;4993681;28;20391;-69
2021/01/28 00:06:21;;;;;;;21.15;19.40;;;2.60;87.10;;;;;;4992776;28;20398;-69
2021/01/28 00:08:46;;;;;;;22.65;20.85;;;2.60;87.40;;;;;;4992224;28;20398;-69
2021/01/28 00:11:12;;;;;;;23.53;21.63;;;2.70;87.00;;;;;;5006607;28;20437;-69
2021/01/28 00:13:37;;;;;;;24.63;22.63;;;2.60;87.30;;;;;;4992395;28;20386;-68
2021/01/28 00:16:03;;;;;;;24.13;22.13;;;2.50;87.60;;;;;;4992497;28;20425;-69
2021/01/28 00:18:29;;;;;;;24.40;22.50;;;2.50;88.00;;;;;;4992172;28;20509;-68
2021/01/28 00:20:54;;;;;;;23.00;21.20;;;2.40;88.40;;;;;;4991322;28;20394;-69
2021/01/28 00:23:20;;;;;;;24.20;22.27;;;2.60;88.00;;;;;;4993082;28;20440;-68
2021/01/28 00:25:47;;;;;;;24.85;22.85;;;2.50;87.80;;;;;;4992520;28;20398;-68
2021/01/28 00:28:15;;;;;;;24.35;22.45;;;2.40;88.60;;;;;;4992069;28;20489;-69
2021/01/28 00:30:44;;;;;;;22.87;21.07;;;2.50;88.60;;;;;;4991342;28;20426;-67
2021/01/28 00:33:19;;;;;;;24.05;22.13;;;2.60;88.20;;;;;;4992662;28;20378;-68
2021/01/28 00:35:46;;;;;;;24.90;22.90;;;2.60;88.60;;;;;;4992706;28;20390;-67
2021/01/28 00:38:15;;;;;;;24.20;22.27;;;2.50;88.70;;;;;;5006186;28;20922;-67
2021/01/28 00:40:41;;;;;;;26.45;24.35;;;2.60;88.50;;;;;;4991582;28;20938;-68
2021/01/28 00:43:07;;;;;;;24.35;22.45;;;2.40;88.80;;;;;;4991806;28;20473;-67
2021/01/28 00:45:33;;;;;;;24.58;22.67;;;2.50;89.20;;;;;;4992501;28;20481;-70
2021/01/28 00:48:00;;;;;;;24.38;22.42;;;2.60;88.90;;;;;;4992152;28;20945;-68
2021/01/28 00:50:29;;;;;;;24.38;22.48;;;2.60;88.70;;;;;;4991046;28;20383;-68
2021/01/28 00:52:55;;;;;;;24.85;22.85;;;2.70;88.60;;;;;;4990837;28;20465;-68
2021/01/28 00:55:22;;;;;;;25.35;23.35;;;2.70;88.40;;;;;;4992277;28;20401;-68
2021/01/28 00:57:48;;;;;;;24.38;22.38;;;2.70;89.00;;;;;;4989923;28;20421;-69
2021/01/28 01:00:18;;;;;;;26.25;24.15;;;2.70;88.80;;;;;;4990771;28;20422;-69
2021/01/28 01:02:44;;;;;;;25.75;23.77;;;2.60;89.00;;;;;;4991735;28;20386;-67
2021/01/28 01:05:12;;;;;;;25.63;23.63;;;2.60;88.90;;;;;;4992511;28;20841;-67
2021/01/28 01:07:38;;;;;;;26.67;24.58;;;2.70;88.60;;;;;;4991890;28;20394;-67
2021/01/28 01:10:06;;;;;;;28.08;25.88;;;2.70;88.90;;;;;;4990450;28;20412;-68
2021/01/28 01:12:31;;;;;;;26.77;24.67;;;2.60;89.20;;;;;;4991406;28;20914;-68
2021/01/28 01:14:57;;;;;;;28.40;26.23;;;2.70;89.70;;;;;;4992363;28;20485;-68
2021/01/28 01:17:22;;;;;;;27.60;25.50;;;2.70;89.50;;;;;;4990773;28;20894;-68
2021/01/28 01:19:48;;;;;;;29.70;27.33;;;2.70;89.80;;;;;;5006083;28;20529;-69
2021/01/28 01:22:13;;;;;;;29.57;27.17;;;2.60;90.00;;;;;;4991101;28;20402;-68
2021/01/28 01:24:39;;;;;;;29.93;27.53;;;2.60;90.10;;;;;;4991055;28;20390;-69
2021/01/28 01:27:04;;;;;;;30.53;28.13;;;2.60;90.40;;;;;;4991522;28;20426;-68
2021/01/28 01:29:30;;;;;;;31.33;28.83;;;2.70;90.40;;;;;;4989998;28;20398;-68
2021/01/28 01:31:55;;;;;;;29.65;27.35;;;2.70;90.30;;;;;;4991339;28;20428;-68
2021/01/28 01:34:21;;;;;;;31.58;29.10;;;2.80;90.20;;;;;;4991366;28;20406;-69
2021/01/28 01:36:46;;;;;;;30.55;28.15;;;2.70;90.30;;;;;;4990815;28;20460;-68
2021/01/28 01:39:12;;;;;;;31.70;29.00;;;2.80;90.60;;;;;;4990535;28;20406;-68
2021/01/28 01:41:37;;;;;;;31.20;28.70;;;2.80;90.20;;;;;;4990346;28;20402;-68
2021/01/28 01:44:03;;;;;;;31.20;28.60;;;2.80;90.60;;;;;;4991653;28;20379;-67
2021/01/28 01:46:29;;;;;;;33.20;30.42;;;2.90;90.30;;;;;;4991502;28;20717;-67
2021/01/28 01:49:02;;;;;;;33.15;30.45;;;2.90;90.50;;;;;;4989873;28;20405;-67
2021/01/28 01:51:36;;;;;;;33.45;30.75;;;2.80;90.70;;;;;;4991271;28;20398;-67
2021/01/28 01:54:11;;;;;;;34.33;31.52;;;2.90;90.70;;;;;;4990938;28;20406;-68
2021/01/28 01:56:40;;;;;;;34.08;31.25;;;2.90;90.80;;;;;;4990748;28;20485;-68
2021/01/28 01:59:16;;;;;;;31.85;29.25;;;2.90;90.80;;;;;;4990495;28;20430;-68
2021/01/28 02:01:57;;;;;;;33.65;30.85;;;2.90;91.00;;;;;;4990988;28;20406;-69
2021/01/28 02:04:23;;;;;;;34.92;31.95;;;3.00;90.70;;;;;;4990401;28;20398;-67
2021/01/28 02:06:53;;;;;;;35.08;32.17;;;2.90;90.70;;;;;;4990417;28;20386;-67
2021/01/28 02:09:19;;;;;;;34.78;31.92;;;3.00;90.80;;;;;;4993513;28;20398;-67
2021/01/28 02:11:47;;;;;;;34.83;31.95;;;3.00;90.80;;;;;;4995034;28;20740;-67
2021/01/28 02:14:15;;;;;;;35.33;32.42;;;3.10;90.70;;;;;;4994956;28;20398;-67
2021/01/28 02:17:19;;;;;;;36.78;33.67;;;3.10;90.50;;;;;;4993773;28;20485;-68
2021/01/28 02:19:59;;;;;;;36.58;33.55;;;3.10;90.60;;;;;;4929885;29;20430;-68
2021/01/28 02:22:38;;;;;;;35.67;32.70;;;3.10;91.10;;;;;;4970182;28;20817;-68
2021/01/28 02:25:26;;;;;;;37.63;34.40;;;3.10;90.80;;;;;;4987321;28;20402;-69
2021/01/28 02:27:55;;;;;;;38.75;35.50;;;3.20;90.90;;;;;;4994114;28;20418;-67
2021/01/28 02:30:23;;;;;;;38.17;34.92;;;3.10;91.10;;;;;;4993186;28;20485;-68
2021/01/28 02:32:50;;;;;;;36.28;33.17;;;3.10;91.10;;;;;;4994657;28;20394;-67
2021/01/28 02:35:19;;;;;;;37.78;34.67;;;3.20;91.10;;;;;;4993494;28;20445;-67
2021/01/28 02:37:47;;;;;;;38.55;35.45;;;3.30;91.20;;;;;;4993149;28;20391;-67
2021/01/28 02:40:13;;;;;;;39.00;35.70;;;3.20;91.30;;;;;;4993899;28;20402;-68
2021/01/28 02:42:39;;;;;;;37.92;34.83;;;3.20;91.30;;;;;;4993450;28;20390;-67
2021/01/28 02:45:06;;;;;;;37.07;33.97;;;3.30;91.20;;;;;;4994548;28;20756;-68
2021/01/28 02:47:31;;;;;;;38.45;35.25;;;3.30;91.30;;;;;;4994303;28;20394;-67
2021/01/28 02:49:57;;;;;;;36.37;33.37;;;3.20;91.30;;;;;;4992791;28;21027;-68
2021/01/28 02:52:23;;;;;;;34.77;31.97;;;3.30;91.20;;;;;;5008829;28;20402;-69
2021/01/28 02:54:52;;;;;;;36.63;33.55;;;3.40;91.20;;;;;;4994628;28;20379;-67
2021/01/28 02:57:18;;;;;;;37.45;34.25;;;3.40;91.10;;;;;;5008329;28;20438;-67
2021/01/28 02:59:44;;;;;;;37.27;34.07;;;3.40;91.30;;;;;;4992393;28;20482;-68
2021/01/28 03:02:12;;;;;;;35.40;32.47;;;3.40;91.60;;;;;;5009267;28;20395;-67
2021/01/28 03:04:38;;;;;;;37.03;33.83;;;3.40;91.60;;;;;;4993985;28;20433;-69
2021/01/28 03:07:06;;;;;;;35.87;32.87;;;3.40;91.30;;;;;;4991551;28;20782;-68
2021/01/28 03:09:31;;;;;;;34.33;31.52;;;3.40;91.40;;;;;;4993140;28;20958;-67
2021/01/28 03:11:57;;;;;;;35.58;32.67;;;3.40;91.20;;;;;;4993659;28;20387;-67
2021/01/28 03:14:23;;;;;;;35.87;32.87;;;3.50;91.20;;;;;;4992990;28;20402;-68
2021/01/28 03:16:48;;;;;;;37.90;34.60;;;3.50;91.20;;;;;;4993688;28;20486;-67
2021/01/28 03:19:14;;;;;;;36.63;33.53;;;3.40;91.50;;;;;;4992263;28;20426;-67
2021/01/28 03:21:40;;;;;;;35.57;32.63;;;3.40;91.70;;;;;;4993071;28;20485;-67
2021/01/28 03:24:06;;;;;;;34.53;31.67;;;3.50;91.40;;;;;;4992873;28;20409;-67
2021/01/28 03:26:32;;;;;;;37.23;34.07;;;3.60;91.20;;;;;;4993298;28;20387;-67
2021/01/28 03:28:57;;;;;;;39.40;36.00;;;3.50;91.30;;;;;;4990276;28;20456;-68
2021/01/28 03:31:23;;;;;;;38.05;34.75;;;3.50;91.70;;;;;;4993549;28;20456;-67
2021/01/28 03:33:49;;;;;;;39.13;35.78;;;3.40;91.90;;;;;;4993446;28;20398;-67
2021/01/28 03:36:14;;;;;;;38.53;35.22;;;3.50;91.90;;;;;;4992843;28;20469;-68
2021/01/28 03:38:40;;;;;;;37.88;34.58;;;3.50;91.90;;;;;;4992124;28;20934;-68
2021/01/28 03:41:05;;;;;;;38.27;34.97;;;3.50;91.90;;;;;;4992905;28;20486;-68
2021/01/28 03:43:31;;;;;;;39.20;35.80;;;3.60;91.60;;;;;;4992858;28;20823;-69
2021/01/28 03:45:57;;;;;;;40.20;36.70;;;3.60;91.60;;;;;;4992381;28;20441;-69
2021/01/28 03:48:22;;;;;;;40.40;36.80;;;3.60;91.90;;;;;;4990866;28;20410;-68
2021/01/28 03:50:48;;;;;;;40.80;37.17;;;3.60;91.80;;;;;;4990798;28;20382;-68
2021/01/28 03:53:13;;;;;;;39.47;35.97;;;3.60;92.10;;;;;;4993425;28;20857;-68
2021/01/28 03:55:39;;;;;;;40.30;36.80;;;3.60;92.20;;;;;;4992127;28;20398;-68
2021/01/28 03:58:04;;;;;;;39.90;36.42;;;3.60;92.30;;;;;;4992081;28;20422;-68
2021/01/28 04:00:32;;;;;;;42.42;38.63;;;3.60;92.30;;;;;;4992676;28;20442;-68
2021/01/28 04:02:59;;;;;;;40.20;36.70;;;3.60;92.40;;;;;;4992579;28;20469;-67
2021/01/28 04:05:26;;;;;;;40.60;37.03;;;3.60;92.50;;;;;;4992085;28;20943;-68
2021/01/28 04:07:51;;;;;;;39.97;36.45;;;3.70;92.30;;;;;;4991373;28;21264;-67
2021/01/28 04:10:22;;;;;;;39.43;35.83;;;3.70;92.40;;;;;;4992302;28;20418;-68
2021/01/28 04:12:47;;;;;;;41.23;37.60;;;3.70;92.20;;;;;;4992718;28;20402;-68
2021/01/28 04:15:14;;;;;;;41.25;37.55;;;3.70;92.10;;;;;;4992961;28;20389;-67
2021/01/28 04:17:39;;;;;;;41.55;37.95;;;3.70;92.40;;;;;;4991381;28;20893;-68
2021/01/28 04:20:06;;;;;;;40.40;36.88;;;3.70;92.40;;;;;;4991245;28;20429;-69
2021/01/28 04:22:31;;;;;;;39.70;36.28;;;3.70;92.50;;;;;;4992362;28;20398;-69
2021/01/28 04:24:57;;;;;;;39.40;36.00;;;3.80;92.30;;;;;;4991707;28;20387;-69
2021/01/28 04:27:22;;;;;;;38.88;35.47;;;3.80;92.30;;;;;;4992529;28;20892;-69
2021/01/28 04:29:48;;;;;;;40.67;37.25;;;3.90;92.40;;;;;;4991209;28;20548;-68
2021/01/28 04:32:13;;;;;;;40.33;36.83;;;3.80;92.20;;;;;;4991360;28;20494;-68
2021/01/28 04:34:39;;;;;;;39.50;36.00;;;3.80;92.40;;;;;;4992068;28;20434;-68
2021/01/28 04:37:04;;;;;;;39.93;36.43;;;3.80;92.40;;;;;;4992728;28;20390;-68
2021/01/28 04:39:30;;;;;;;42.23;38.47;;;3.80;92.30;;;;;;4991028;28;20500;-69
2021/01/28 04:41:56;;;;;;;41.83;38.03;;;3.80;92.50;;;;;;4991483;28;20396;-69
2021/01/28 04:44:21;;;;;;;41.30;37.50;;;3.80;92.70;;;;;;4992584;28;20391;-68
2021/01/28 04:46:56;;;;;;;43.47;39.57;;;3.80;92.70;;;;;;4985203;28;20453;-69
2021/01/28 04:49:25;;;;;;;43.83;39.75;;;3.80;92.70;;;;;;5004957;28;20406;-69
2021/01/28 04:52:01;;;;;;;42.58;38.75;;;3.80;92.60;;;;;;4991937;28;20492;-68
2021/01/28 04:54:32;;;;;;;43.95;40.03;;;3.80;93.00;;;;;;4992401;28;20485;-67
2021/01/28 04:57:01;;;;;;;42.25;38.45;;;3.80;92.90;;;;;;4991212;28;20760;-67
2021/01/28 04:59:30;;;;;;;43.20;39.30;;;3.90;93.00;;;;;;4990475;28;20486;-67
2021/01/28 05:01:59;;;;;;;40.30;36.75;;;3.90;92.90;;;;;;5006223;28;21595;-67
2021/01/28 05:04:32;;;;;;;41.85;38.05;;;3.90;92.90;;;;;;5006463;28;20426;-67
2021/01/28 05:06:57;;;;;;;40.00;36.47;;;3.90;92.70;;;;;;5006642;28;20476;-67
2021/01/28 05:09:22;;;;;;;41.05;37.35;;;3.90;92.70;;;;;;4990637;28;21091;-67
2021/01/28 05:11:56;;;;;;;39.97;36.38;;;4.00;92.70;;;;;;4991484;28;20401;-67
2021/01/28 05:14:27;;;;;;;40.15;36.55;;;4.00;92.70;;;;;;4991433;28;20482;-68
2021/01/28 05:16:56;;;;;;;38.90;35.47;;;4.10;92.50;;;;;;5006774;28;20394;-67
2021/01/28 05:19:41;;;;;;;38.13;34.72;;;4.10;92.40;;;;;;4990059;28;20421;-68
2021/01/28 05:22:20;;;;;;;39.72;36.25;;;4.10;92.50;;;;;;4991339;28;20895;-68
2021/01/28 05:24:54;;;;;;;41.07;37.47;;;4.10;92.30;;;;;;4992090;28;20394;-68
2021/01/28 05:27:25;;;;;;;40.15;36.55;;;4.10;92.30;;;;;;5005858;28;20398;-68
2021/01/28 05:29:57;;;;;;;40.50;36.83;;;4.10;92.40;;;;;;4990562;28;20443;-68
2021/01/28 05:32:43;;;;;;;41.60;37.70;;;4.10;92.20;;;;;;4991112;28;20394;-68
2021/01/28 05:35:23;;;;;;;40.50;36.73;;;4.10;92.50;;;;;;4991045;28;20398;-67
2021/01/28 05:38:02;;;;;;;40.25;36.58;;;4.10;92.70;;;;;;4991722;28;20880;-67
2021/01/28 05:40:28;;;;;;;38.65;35.15;;;4.10;92.90;;;;;;4970783;28;20416;-74
2021/01/28 05:42:55;;;;;;;40.92;37.22;;;4.20;92.70;;;;;;4983643;28;20404;-73
2021/01/28 05:45:34;;;;;;;37.88;34.47;;;4.20;92.50;;;;;;4995577;28;20821;-73
2021/01/28 05:48:19;;;;;;;37.93;34.53;;;4.30;92.70;;;;;;4993905;28;20409;-73
2021/01/28 05:50:44;;;;;;;38.90;35.40;;;4.30;92.30;;;;;;4994008;28;20452;-73
2021/01/28 05:53:16;;;;;;;38.83;35.30;;;4.30;92.20;;;;;;4994781;28;20391;-74
2021/01/28 05:55:43;;;;;;;40.53;36.83;;;4.30;92.30;;;;;;4994062;28;20386;-74
2021/01/28 05:58:20;;;;;;;40.33;36.63;;;4.20;92.40;;;;;;4994571;28;20936;-73
2021/01/28 06:01:06;;;;;;;41.15;37.25;;;4.30;92.40;;;;;;4994624;28;20412;-74
2021/01/28 06:03:58;;;;;;;39.90;36.20;;;4.30;92.50;;;;;;4974462;28;20391;-75
2021/01/28 06:06:46;;;;;;;41.45;37.65;;;4.30;92.40;;;;;;4975010;28;20391;-75
2021/01/28 06:09:27;;;;;;;40.75;36.88;;;4.30;92.60;;;;;;4974367;28;20400;-75
2021/01/28 06:12:11;;;;;;;40.80;37.10;;;4.20;92.50;;;;;;4993200;28;20446;-74
2021/01/28 06:14:42;;;;;;;40.55;36.83;;;4.30;92.60;;;;;;4993654;28;20398;-75
2021/01/28 06:17:27;;;;;;;40.72;36.85;;;4.30;92.40;;;;;;4994396;28;20452;-75
2021/01/28 06:20:04;;;;;;;41.43;37.53;;;4.30;92.40;;;;;;4992990;28;20417;-75
2021/01/28 06:23:06;;;;;;;41.53;37.60;;;4.30;92.60;;;;;;4993943;28;20856;-75
2021/01/28 06:25:34;;;;;;;42.10;38.27;;;4.20;92.70;;;;;;4993700;28;20477;-75
2021/01/28 06:28:31;;;;;;;39.65;35.97;;;4.30;92.60;;;;;;4994234;28;20402;-74
2021/01/28 06:31:36;;;;;;;39.85;36.10;;;4.30;92.40;;;;;;4991921;28;20391;-74
2021/01/28 06:34:37;;;;;;;39.33;35.65;;;4.30;92.60;;;;;;4993410;28;20409;-73
2021/01/28 06:37:09;;;;;;;41.13;37.28;;;4.40;92.40;;;;;;5012986;28;20392;-73
2021/01/28 06:39:41;;;;;;;41.15;37.15;;;4.40;92.00;;;;;;5013400;28;20503;-73
2021/01/28 06:42:11;;;;;;;39.17;35.57;;;4.30;92.00;;;;;;5003396;28;20394;-73
2021/01/28 06:44:48;;;;;;;34.60;31.50;;;4.30;91.90;;;;;;4994494;28;20778;-73
2021/01/28 06:47:34;;;;;;;25.08;22.77;;;4.20;91.40;;;;;;4993945;28;20405;-73
2021/01/28 06:50:09;;;;;;;18.80;17.10;;;4.10;91.50;;;;;;4993893;28;20410;-73
2021/01/28 06:52:47;;;;;;;15.93;14.43;;;3.90;91.00;;;;;;4992760;28;20386;-74
2021/01/28 06:55:32;;;;;;;14.50;13.20;;;3.90;91.30;;;;;;4993004;28;20737;-73
2021/01/28 06:58:16;;;;;;;13.98;12.68;;;3.80;91.50;;;;;;4993412;28;20410;-73
2021/01/28 07:00:55;;;;;;;15.18;13.68;;;3.70;91.70;;;;;;4992531;28;20851;-73
2021/01/28 07:03:52;;;;;;;13.20;12.00;;;3.70;92.10;;;;;;4993680;28;20394;-74
2021/01/28 07:06:40;;;;;;;13.97;12.60;;;3.60;92.10;;;;;;4993783;28;20394;-73
2021/01/28 07:09:30;;;;;;;13.25;12.02;;;3.70;92.20;;;;;;4992376;28;20395;-74
2021/01/28 07:12:00;;;;;;;14.07;12.77;;;3.70;92.20;;;;;;4992392;28;20560;-73
2021/01/28 07:14:26;;;;;;;14.30;12.90;;;3.70;92.50;;;;;;5024389;28;20403;-74
2021/01/28 07:17:10;;;;;;;13.68;12.27;;;3.60;92.40;;;;;;4992432;28;20395;-74
2021/01/28 07:19:41;;;;;;;16.75;15.13;;;3.70;92.50;;;;;;4991768;28;20424;-75
2021/01/28 07:22:30;;;;;;;140.40;126.97;;;3.80;92.90;;;;;;4993294;28;20485;-75
2021/01/28 07:25:16;;;;;;;37.30;33.70;;;3.90;94.20;;;;;;4993277;28;20399;-75
2021/01/28 07:28:05;;;;;;;118.35;106.70;;;4.00;93.70;;;;;;4992274;28;20426;-75
2021/01/28 07:30:34;;;;;;;123.10;111.18;;;4.10;93.90;;;;;;4990383;28;20390;-74
2021/01/28 07:32:59;;;;;;;76.97;69.38;;;4.30;94.70;;;;;;4992662;28;20887;-74
2021/01/28 07:35:24;;;;;;;45.67;41.22;;;4.40;95.30;;;;;;4992181;28;20394;-74
2021/01/28 07:37:51;;;;;;;65.85;59.20;;;4.50;95.40;;;;;;4993111;28;20492;-74
2021/01/28 07:40:54;;;;;;;41.33;37.30;;;4.60;95.40;;;;;;4991971;28;20900;-74
2021/01/28 07:43:41;;;;;;;43.30;38.85;;;4.80;95.00;;;;;;4991998;28;20378;-74
2021/01/28 07:46:28;;;;;;;45.85;41.28;;;5.20;95.40;;;;;;4991466;28;20390;-74
2021/01/28 07:49:14;;;;;;;35.80;32.28;;;5.50;95.60;;;;;;4991808;28;20387;-74
2021/01/28 07:51:42;;;;;;;31.33;28.25;;;5.90;95.70;;;;;;4992424;28;20498;-74
2021/01/28 07:54:26;;;;;;;27.23;24.67;;;6.10;95.20;;;;;;4991025;28;20477;-74
2021/01/28 07:57:18;;;;;;;23.63;21.42;;;6.00;93.10;;;;;;4992296;28;20418;-74
2021/01/28 07:59:54;;;;;;;22.27;20.08;;;5.90;92.60;;;;;;4981563;28;20426;-74
2021/01/28 08:02:32;;;;;;;19.92;18.10;;;5.60;91.70;;;;;;4991861;28;20405;-74
2021/01/28 08:05:04;;;;;;;19.77;17.87;;;5.70;93.30;;;;;;4992458;28;20462;-74
2021/01/28 08:07:36;;;;;;;18.92;17.05;;;5.80;92.30;;;;;;4991074;28;20409;-74
2021/01/28 08:10:12;;;;;;;17.30;15.70;;;5.90;93.00;;;;;;4991562;28;20443;-74
2021/01/28 08:12:46;;;;;;;16.70;15.10;;;6.00;92.00;;;;;;4992420;28;20682;-74
2021/01/28 08:15:17;;;;;;;16.90;15.27;;;6.10;91.20;;;;;;4991474;28;20405;-74
2021/01/28 08:17:43;;;;;;;15.90;14.40;;;6.30;90.00;;;;;;4991964;28;20417;-74
2021/01/28 08:20:17;;;;;;;15.80;14.30;;;6.30;90.00;;;;;;4991284;28;20414;-74
2021/01/28 08:22:57;;;;;;;15.37;13.97;;;6.40;89.90;;;;;;4990885;28;20588;-74
2021/01/28 08:25:24;;;;;;;16.58;15.07;;;6.50;86.60;;;;;;4991788;28;20429;-74
2021/01/28 08:27:50;;;;;;;17.67;16.08;;;6.30;81.90;;;;;;4991638;28;20390;-74
2021/01/28 08:30:23;;;;;;;16.60;15.00;;;6.30;81.50;;;;;;4991930;28;20455;-74
2021/01/28 08:32:55;;;;;;;16.80;15.20;;;6.60;82.90;;;;;;4991483;28;20453;-75
2021/01/28 08:35:29;;;;;;;16.60;15.13;;;6.80;80.50;;;;;;4992551;28;20931;-74
2021/01/28 08:38:06;;;;;;;16.88;15.20;;;6.90;81.60;;;;;;4990662;28;20397;-74
2021/01/28 08:40:31;;;;;;;17.52;15.93;;;6.80;83.40;;;;;;4991710;28;20418;-74
2021/01/28 08:43:19;;;;;;;17.30;15.60;;;6.80;82.40;;;;;;4991494;28;20395;-74
2021/01/28 08:45:45;;;;;;;18.40;16.70;;;6.80;81.40;;;;;;4991784;28;20390;-74
2021/01/28 08:48:15;;;;;;;18.30;16.60;;;6.80;84.00;;;;;;4991851;28;20779;-78
2021/01/28 08:50:42;;;;;;;28.43;25.77;;;6.80;86.70;;;;;;4992625;28;20520;-76
2021/01/28 08:53:19;;;;;;;35.08;31.75;;;6.80;84.10;;;;;;4992134;28;20390;-78
2021/01/28 08:55:45;;;;;;;46.63;42.22;;;6.80;84.10;;;;;;4992864;28;20861;-78
2021/01/28 08:58:30;;;;;;;40.43;36.50;;;6.90;86.30;;;;;;4992556;28;20411;-78
2021/01/28 09:01:01;;;;;;;32.78;29.60;;;6.80;87.30;;;;;;4991437;28;20490;-76
2021/01/28 09:03:32;;;;;;;44.10;39.95;;;6.30;82.80;;;;;;4991234;28;20434;-78
2021/01/28 09:06:02;;;;;;;21.38;19.38;;;6.30;88.80;;;;;;4992318;28;20398;-75
2021/01/28 09:08:42;;;;;;;29.67;26.83;;;6.30;83.20;;;;;;4986890;28;20425;-75
2021/01/28 09:11:23;;;;;;;64.28;58.33;;;6.10;83.20;;;;;;4971844;28;20742;-75
2021/01/28 09:14:04;;;;;;;31.07;28.20;;;6.30;89.30;;;;;;4972977;28;20475;-75
2021/01/28 09:16:29;;;;;;;36.90;33.47;;;6.30;84.50;;;;;;4972487;28;20428;-75
2021/01/28 09:19:08;;;;;;;25.83;23.47;;;6.40;86.40;;;;;;4987666;28;20449;-75
2021/01/28 09:21:40;;;;;;;29.52;26.75;;;6.30;81.60;;;;;;4991727;28;20422;-75
2021/01/28 09:24:31;;;;;;;38.67;35.13;;;6.10;84.60;;;;;;5006932;28;20410;-75
2021/01/28 09:27:07;;;;;;;33.83;30.75;;;6.20;86.90;;;;;;5006037;28;20405;-76
2021/01/28 09:29:38;;;;;;;28.08;25.42;;;6.20;84.10;;;;;;4990830;28;20939;-75
2021/01/28 09:32:10;;;;;;;34.80;31.50;;;6.20;82.90;;;;;;4990771;28;20410;-76
2021/01/28 09:34:36;;;;;;;20.23;18.25;;;6.00;84.20;;;;;;5007031;28;20884;-75
2021/01/28 09:37:29;;;;;;;19.57;17.77;;;5.80;80.80;;;;;;4992077;28;20394;-75
2021/01/28 09:39:55;;;;;;;26.38;23.88;;;5.50;80.50;;;;;;4987845;28;20410;-75
2021/01/28 09:42:30;;;;;;;26.17;23.70;;;5.50;84.90;;;;;;4990930;28;20934;-76
2021/01/28 09:45:17;;;;;;;26.52;23.92;;;5.50;85.00;;;;;;4990657;28;20918;-76
2021/01/28 09:47:56;;;;;;;23.90;21.63;;;5.60;85.20;;;;;;4990796;28;20422;-76
2021/01/28 09:50:23;;;;;;;21.15;19.15;;;5.50;82.20;;;;;;4990601;28;20387;-76
2021/01/28 09:52:50;;;;;;;20.08;18.27;;;5.40;82.60;;;;;;4991566;28;20744;-76
2021/01/28 09:55:21;;;;;;;19.60;17.70;;;5.60;82.50;;;;;;4990861;28;20397;-75
2021/01/28 09:57:47;;;;;;;16.55;15.02;;;5.60;80.00;;;;;;5006691;28;20437;-75
2021/01/28 10:00:16;;;;;;;17.05;15.45;;;5.50;78.00;;;;;;4990441;28;20414;-75
2021/01/28 10:02:52;;;;;;;17.88;16.23;;;5.30;77.70;;;;;;4990194;28;20432;-75
2021/01/28 10:05:20;;;;;;;16.98;15.38;;;5.00;79.60;;;;;;4991408;28;20390;-75
2021/01/28 10:07:47;;;;;;;17.27;15.68;;;5.00;79.70;;;;;;5006582;28;20449;-75
2021/01/28 10:10:15;;;;;;;16.95;15.35;;;4.90;79.20;;;;;;4989703;28;20425;-75
2021/01/28 10:12:40;;;;;;;17.40;15.70;;;4.90;79.90;;;;;;4990457;28;20399;-75
2021/01/28 10:15:07;;;;;;;17.88;16.20;;;5.00;79.80;;;;;;5006171;28;20406;-75
2021/01/28 10:17:33;;;;;;;16.35;14.85;;;5.00;80.80;;;;;;4991387;28;20418;-75
2021/01/28 10:19:58;;;;;;;16.47;14.87;;;5.20;79.60;;;;;;4984810;28;20449;-75
2021/01/28 10:22:24;;;;;;;16.93;15.33;;;5.30;79.40;;;;;;4989279;28;20382;-75
2021/01/28 10:24:50;;;;;;;17.60;15.90;;;5.40;79.90;;;;;;4990897;28;20394;-74
2021/01/28 10:27:15;;;;;;;15.82;14.32;;;5.30;78.80;;;;;;4989767;28;20391;-75
2021/01/28 10:29:42;;;;;;;15.73;14.23;;;5.30;78.10;;;;;;4989061;28;20404;-75
2021/01/28 10:32:11;;;;;;;19.45;17.65;;;5.30;77.50;;;;;;4993076;28;20394;-75
2021/01/28 10:34:37;;;;;;;20.33;18.33;;;5.30;79.00;;;;;;4993348;28;20401;-75
2021/01/28 10:37:04;;;;;;;19.27;17.48;;;5.40;81.40;;;;;;4992412;28;20440;-75
2021/01/28 10:39:30;;;;;;;15.25;13.85;;;5.60;82.60;;;;;;4991431;28;20410;-74
2021/01/28 10:41:55;;;;;;;17.98;16.20;;;5.50;77.50;;;;;;5006608;28;20916;-74
2021/01/28 10:44:21;;;;;;;14.65;13.20;;;5.50;79.60;;;;;;4992142;28;20386;-75
2021/01/28 10:46:47;;;;;;;13.70;12.40;;;5.60;77.50;;;;;;4991812;28;20406;-75
2021/01/28 10:49:13;;;;;;;13.18;11.98;;;5.70;76.60;;;;;;4992388;28;20401;-75
2021/01/28 10:51:39;;;;;;;14.53;13.13;;;5.70;75.40;;;;;;4986713;28;20397;-75
2021/01/28 10:54:05;;;;;;;13.80;12.50;;;5.50;75.10;;;;;;4993566;28;20390;-75
2021/01/28 10:56:30;;;;;;;13.97;12.67;;;5.60;77.20;;;;;;4993224;28;20416;-75
2021/01/28 10:58:56;;;;;;;15.33;13.83;;;5.60;76.40;;;;;;4992663;28;20454;-75
2021/01/28 11:01:21;;;;;;;14.00;12.70;;;5.70;77.50;;;;;;4987973;28;20402;-75
2021/01/28 11:03:47;;;;;;;13.82;12.52;;;5.60;75.70;;;;;;4992224;28;20386;-75
2021/01/28 11:06:13;;;;;;;12.37;11.27;;;5.70;76.20;;;;;;4992715;28;20477;-75
2021/01/28 11:08:39;;;;;;;12.50;11.20;;;5.70;75.20;;;;;;4991233;28;20772;-76
2021/01/28 11:11:05;;;;;;;13.50;12.20;;;5.60;73.10;;;;;;4987457;28;20390;-75
2021/01/28 11:13:31;;;;;;;11.55;10.45;;;5.60;75.10;;;;;;4992650;28;20387;-75
2021/01/28 11:15:56;;;;;;;12.10;11.00;;;5.70;72.80;;;;;;4991952;28;20441;-75
2021/01/28 11:18:22;;;;;;;12.57;11.37;;;5.60;72.50;;;;;;4992009;28;20863;-75
2021/01/28 11:20:47;;;;;;;11.80;10.70;;;5.60;72.60;;;;;;4988469;28;20417;-75
2021/01/28 11:23:13;;;;;;;11.57;10.50;;;5.40;73.20;;;;;;4991609;28;20421;-75
2021/01/28 11:25:38;;;;;;;12.60;11.48;;;5.40;74.40;;;;;;4992967;28;20445;-76
2021/01/28 11:28:04;;;;;;;12.68;11.45;;;5.40;76.40;;;;;;4992104;28;20390;-76
2021/01/28 11:30:32;;;;;;;11.87;10.77;;;5.40;74.90;;;;;;4987565;28;20492;-76
2021/01/28 11:32:58;;;;;;;11.98;10.88;;;5.40;72.50;;;;;;4991536;28;20469;-76
2021/01/28 11:35:27;;;;;;;10.30;9.30;;;5.40;75.60;;;;;;4993072;28;20482;-76
2021/01/28 11:37:53;;;;;;;11.45;10.35;;;5.30;74.30;;;;;;4991871;28;20399;-76
2021/01/28 11:40:22;;;;;;;10.40;9.50;;;5.30;76.80;;;;;;4987366;28;20414;-75
2021/01/28 11:42:48;;;;;;;10.15;9.25;;;5.10;72.80;;;;;;4991449;28;20391;-75
2021/01/28 11:45:15;;;;;;;9.88;8.98;;;5.20;74.30;;;;;;4992495;28;20501;-74
2021/01/28 11:47:41;;;;;;;9.32;8.43;;;5.20;74.90;;;;;;4990771;28;20414;-74
2021/01/28 11:50:08;;;;;;;10.17;9.17;;;5.10;74.30;;;;;;4988938;28;20394;-75
2021/01/28 11:52:34;;;;;;;8.95;8.10;;;5.10;74.00;;;;;;4990196;28;20448;-76
2021/01/28 11:54:59;;;;;;;8.70;7.90;;;5.20;71.50;;;;;;4992600;28;20398;-76
2021/01/28 11:57:25;;;;;;;8.50;7.60;;;4.90;72.90;;;;;;4993046;28;20955;-74
2021/01/28 11:59:50;;;;;;;8.33;7.53;;;4.90;73.70;;;;;;4991500;28;20796;-75
2021/01/28 12:02:16;;;;;;;8.02;7.22;;;5.10;74.90;;;;;;4992115;28;20395;-75
2021/01/28 12:04:42;;;;;;;6.88;6.28;;;5.20;74.20;;;;;;4992645;28;20448;-75
2021/01/28 12:07:07;;;;;;;6.63;6.03;;;5.30;71.50;;;;;;4991806;28;20553;-75
2021/01/28 12:09:33;;;;;;;7.43;6.53;;;5.20;69.30;;;;;;4992413;28;20390;-75
2021/01/28 12:11:58;;;;;;;7.13;6.43;;;5.10;70.80;;;;;;5007512;28;20409;-75
2021/01/28 12:14:24;;;;;;;7.53;6.72;;;5.20;72.70;;;;;;4992723;28;20409;-75
2021/01/28 12:16:49;;;;;;;7.00;6.00;;;5.30;71.20;;;;;;4991851;28;20390;-74
2021/01/28 12:19:15;;;;;;;7.28;6.45;;;5.30;70.10;;;;;;4992404;28;20442;-74
2021/01/28 12:21:40;;;;;;;7.33;6.63;;;5.40;70.40;;;;;;4992531;28;20417;-75
2021/01/28 12:24:06;;;;;;;9.03;8.07;;;5.40;72.80;;;;;;4991077;28;20390;-75
2021/01/28 12:26:33;;;;;;;8.13;7.43;;;5.60;73.30;;;;;;4992891;28;20390;-74
2021/01/28 12:28:59;;;;;;;8.00;7.20;;;5.70;73.30;;;;;;4992263;28;20772;-75
2021/01/28 12:31:24;;;;;;;8.80;7.23;;;5.60;71.70;;;;;;4991987;28;20398;-74
2021/01/28 12:33:50;;;;;;;7.67;6.97;;;5.50;69.20;;;;;;4991722;28;20468;-74
2021/01/28 12:36:15;;;;;;;8.40;7.60;;;5.40;69.70;;;;;;4992730;28;20386;-75
2021/01/28 12:38:41;;;;;;;7.20;6.57;;;5.40;71.00;;;;;;4991364;28;20394;-75
2021/01/28 12:41:07;;;;;;;8.17;7.37;;;5.30;70.00;;;;;;4992642;28;20389;-75
2021/01/28 12:43:32;;;;;;;8.90;7.63;;;5.30;69.90;;;;;;4992395;28;20394;-74
2021/01/28 12:45:58;;;;;;;7.95;7.00;;;5.50;74.40;;;;;;4990770;28;20472;-75
2021/01/28 12:48:25;;;;;;;7.50;6.80;;;5.50;69.70;;;;;;4991791;28;20390;-74
2021/01/28 12:50:50;;;;;;;7.90;7.20;;;5.40;69.50;;;;;;4991234;28;20477;-75
2021/01/28 12:53:16;;;;;;;8.77;7.30;;;5.40;71.60;;;;;;4991133;28;20996;-75
2021/01/28 12:55:41;;;;;;;10.02;9.02;;;5.30;70.60;;;;;;4991057;28;20445;-74